Browns Fork, Kentucky
Current Conditions -  °F | °C
As of 7:03 AM on Saturday 01 Nov 2014 (Local Time) from KJKL Reporting Station
Light Snow Light Snow  
Wind Chill: 25°   Ceiling: 500
Heat Index: 32°   Visibility: 7mi
Dew Point: 30°   Wind: 8mph
Humidity: 92%   Direction: 340°NNW
Pressure: 29.99"   Gusts: 18mph
Location:  37.2415°N, 83.2013°W
Report Text: KJKL 011103Z AUTO 34007G16KT 320V020 7SM -SN OVC005 00/M01 A2999 RMK AO2 CIG 004V009 P0000 T00001011
Loading
Personal Weather Stations






























Interactive Weather Map
Tropical Storm Tracking
New forecast layout! Learn more

10-Day Weather Forecast

Advertisements
Track Severe Weather on mobile